Time;durP1;ratioP1;P1;durP2;ratioP2;P2;SDS_P1;SDS_P2;PMS_P1;PMS_P2;Temp;Humidity;BMP_temperature;BMP_pressure;BME280_temperature;BME280_humidity;BME280_pressure;Samples;Min_cycle;Max_cycle;Signal;HPM_P1;HPM_P2
2023/01/21 00:00:35;;;;;;;29.43;19.80;;;;;;;;;;5053958;28;20443;-57
2023/01/21 00:03:01;;;;;;;32.93;20.97;;;;;;;;;;5054141;28;20558;-57
2023/01/21 00:05:27;;;;;;;34.93;23.13;;;;;;;;;;5053754;28;20266;-57
2023/01/21 00:07:53;;;;;;;36.40;24.60;;;;;;;;;;5053255;28;20662;-57
2023/01/21 00:10:19;;;;;;;31.80;21.80;;;;;;;;;;5053810;28;20435;-57
2023/01/21 00:12:47;;;;;;;27.97;18.97;;;;;;;;;;5053618;28;20220;-57
2023/01/21 00:15:13;;;;;;;26.87;18.33;;;;;;;;;;5053496;28;20470;-57
2023/01/21 00:17:38;;;;;;;28.77;18.50;;;;;;;;;;5053547;28;20793;-57
2023/01/21 00:20:05;;;;;;;29.67;20.13;;;;;;;;;;5053512;28;20238;-56
2023/01/21 00:22:32;;;;;;;28.37;19.27;;;;;;;;;;5053380;28;20204;-56
2023/01/21 00:24:58;;;;;;;26.30;19.03;;;;;;;;;;5051437;28;20447;-56
2023/01/21 00:27:24;;;;;;;25.23;18.43;;;;;;;;;;5049691;28;20958;-56
2023/01/21 00:29:51;;;;;;;29.17;19.73;;;;;;;;;;5051995;28;20518;-55
2023/01/21 00:32:18;;;;;;;28.93;19.33;;;;;;;;;;5052559;28;20200;-55
2023/01/21 00:34:44;;;;;;;28.87;21.23;;;;;;;;;;5052616;28;20449;-55
2023/01/21 00:37:10;;;;;;;28.70;20.27;;;;;;;;;;5052646;28;20525;-57
2023/01/21 00:39:41;;;;;;;27.57;18.53;;;;;;;;;;5052711;28;20193;-57
2023/01/21 00:42:07;;;;;;;31.20;19.90;;;;;;;;;;5052762;28;20207;-59
2023/01/21 00:44:33;;;;;;;28.87;19.30;;;;;;;;;;5052671;28;20461;-58
2023/01/21 00:47:00;;;;;;;28.47;18.93;;;;;;;;;;5052289;28;20478;-57
2023/01/21 00:49:26;;;;;;;29.47;18.67;;;;;;;;;;5052218;28;20654;-56
2023/01/21 00:51:52;;;;;;;27.73;18.03;;;;;;;;;;5052760;28;20537;-57
2023/01/21 00:54:18;;;;;;;25.77;18.57;;;;;;;;;;5052652;28;20509;-58
2023/01/21 00:56:45;;;;;;;28.13;18.63;;;;;;;;;;5052315;28;20641;-56
2023/01/21 00:59:10;;;;;;;28.70;19.30;;;;;;;;;;5052446;28;20452;-57
2023/01/21 01:01:37;;;;;;;25.40;18.07;;;;;;;;;;5052287;28;20470;-56
2023/01/21 01:04:05;;;;;;;26.50;17.90;;;;;;;;;;5052623;28;20207;-55
2023/01/21 01:06:31;;;;;;;24.07;17.60;;;;;;;;;;5052559;28;20482;-57
2023/01/21 01:08:57;;;;;;;25.67;17.67;;;;;;;;;;5052353;28;20447;-56
2023/01/21 01:11:25;;;;;;;25.07;17.07;;;;;;;;;;5052656;28;20904;-57
2023/01/21 01:13:51;;;;;;;27.20;18.37;;;;;;;;;;5052436;28;20972;-56
2023/01/21 01:16:17;;;;;;;26.80;18.80;;;;;;;;;;5052273;28;21018;-55
2023/01/21 01:18:43;;;;;;;25.00;17.07;;;;;;;;;;5052374;28;20427;-55
2023/01/21 01:21:12;;;;;;;24.63;17.20;;;;;;;;;;5052561;28;20204;-56
2023/01/21 01:23:38;;;;;;;25.07;17.10;;;;;;;;;;5052437;28;20530;-56
2023/01/21 01:26:05;;;;;;;26.37;16.53;;;;;;;;;;5052392;28;20904;-56
2023/01/21 01:28:32;;;;;;;22.37;15.40;;;;;;;;;;5052040;28;20482;-56
2023/01/21 01:30:59;;;;;;;26.77;17.77;;;;;;;;;;5051942;28;20521;-56
2023/01/21 01:33:25;;;;;;;25.43;17.73;;;;;;;;;;5051988;28;20490;-56
2023/01/21 01:35:51;;;;;;;24.67;17.17;;;;;;;;;;5051529;28;20473;-56
2023/01/21 01:38:19;;;;;;;24.37;16.20;;;;;;;;;;5051462;28;20451;-56
2023/01/21 01:40:46;;;;;;;24.07;16.07;;;;;;;;;;5051641;28;20450;-55
2023/01/21 01:43:16;;;;;;;24.50;17.00;;;;;;;;;;5051464;28;20455;-57
2023/01/21 01:45:42;;;;;;;26.97;17.37;;;;;;;;;;5051571;28;21006;-56
2023/01/21 01:48:09;;;;;;;23.30;15.30;;;;;;;;;;5051404;28;20439;-56
2023/01/21 01:50:37;;;;;;;24.40;15.80;;;;;;;;;;5051506;28;20196;-56
2023/01/21 01:53:04;;;;;;;25.63;16.40;;;;;;;;;;5051460;28;20530;-56
2023/01/21 01:55:32;;;;;;;24.63;15.93;;;;;;;;;;5051428;28;20459;-56
2023/01/21 01:57:59;;;;;;;27.73;18.00;;;;;;;;;;5051201;28;20438;-56
2023/01/21 02:00:26;;;;;;;22.23;14.83;;;;;;;;;;5051582;28;20461;-56
2023/01/21 02:05:37;;;;;;;27.47;17.67;;;;;;;;;;5051486;28;20880;-56
2023/01/21 02:08:04;;;;;;;24.27;16.23;;;;;;;;;;5051267;28;20473;-56
2023/01/21 02:10:33;;;;;;;25.40;17.43;;;;;;;;;;5051315;28;20453;-57
2023/01/21 02:12:59;;;;;;;27.27;17.73;;;;;;;;;;5051242;28;20455;-56
2023/01/21 02:15:28;;;;;;;28.17;17.97;;;;;;;;;;5051067;28;20500;-56
2023/01/21 02:18:02;;;;;;;26.10;17.53;;;;;;;;;;5051278;28;20496;-56
2023/01/21 02:20:50;;;;;;;26.57;17.77;;;;;;;;;;5051353;28;20447;-56
2023/01/21 02:23:18;;;;;;;29.23;17.83;;;;;;;;;;5051067;28;20435;-55
2023/01/21 02:25:59;;;;;;;29.60;19.27;;;;;;;;;;5050903;28;20520;-56
2023/01/21 02:28:52;;;;;;;29.27;18.67;;;;;;;;;;5051017;28;20993;-57
2023/01/21 02:31:27;;;;;;;27.90;18.60;;;;;;;;;;4992657;28;20439;-57
2023/01/21 02:34:01;;;;;;;28.13;18.03;;;;;;;;;;5051098;28;20935;-57
2023/01/21 02:36:45;;;;;;;27.30;18.23;;;;;;;;;;5051030;28;20438;-57
2023/01/21 02:39:13;;;;;;;27.00;17.97;;;;;;;;;;5050752;28;20912;-57
2023/01/21 02:41:46;;;;;;;27.57;17.93;;;;;;;;;;5051136;28;20509;-57
2023/01/21 02:44:14;;;;;;;30.17;18.83;;;;;;;;;;5050781;28;20454;-56
2023/01/21 02:46:42;;;;;;;25.43;18.43;;;;;;;;;;5050956;28;20486;-57
2023/01/21 02:49:14;;;;;;;25.33;17.83;;;;;;;;;;5050851;28;20488;-56
2023/01/21 02:51:45;;;;;;;27.80;18.43;;;;;;;;;;5050990;28;20446;-56
2023/01/21 02:54:15;;;;;;;27.57;18.33;;;;;;;;;;5050903;28;20482;-57
2023/01/21 02:56:42;;;;;;;29.67;18.97;;;;;;;;;;5051244;28;20442;-56
2023/01/21 02:59:08;;;;;;;29.60;18.77;;;;;;;;;;5050639;28;20431;-56
2023/01/21 03:01:41;;;;;;;26.70;18.13;;;;;;;;;;5050872;28;20442;-55
2023/01/21 03:04:14;;;;;;;29.13;18.83;;;;;;;;;;5050836;28;20444;-56
2023/01/21 03:06:54;;;;;;;27.70;18.40;;;;;;;;;;5050804;28;20475;-55
2023/01/21 03:09:21;;;;;;;30.80;19.97;;;;;;;;;;5050375;28;20435;-56
2023/01/21 03:11:50;;;;;;;27.70;18.90;;;;;;;;;;5052600;28;20834;-56
2023/01/21 03:17:07;;;;;;;30.47;18.10;;;;;;;;;;5054156;28;20492;-57
2023/01/21 03:19:39;;;;;;;28.30;19.37;;;;;;;;;;5054236;28;20492;-56
2023/01/21 03:22:08;;;;;;;30.13;20.07;;;;;;;;;;5054166;28;20443;-56
2023/01/21 03:24:34;;;;;;;30.57;20.13;;;;;;;;;;5053978;28;20489;-56
2023/01/21 03:27:00;;;;;;;32.03;19.70;;;;;;;;;;5054011;28;20486;-56
2023/01/21 03:29:27;;;;;;;29.13;19.67;;;;;;;;;;5053932;28;20610;-56
2023/01/21 03:31:56;;;;;;;29.70;20.13;;;;;;;;;;5054119;28;20435;-57
2023/01/21 03:34:23;;;;;;;31.83;20.60;;;;;;;;;;5053796;28;20431;-56
2023/01/21 03:36:53;;;;;;;33.57;22.37;;;;;;;;;;5053946;28;20438;-56
2023/01/21 03:39:22;;;;;;;31.13;20.47;;;;;;;;;;5053706;28;20504;-57
2023/01/21 03:41:48;;;;;;;30.33;20.80;;;;;;;;;;5053788;28;20850;-56
2023/01/21 03:44:15;;;;;;;31.37;20.57;;;;;;;;;;5053630;28;20451;-56
2023/01/21 03:46:45;;;;;;;29.80;21.57;;;;;;;;;;5053813;28;20582;-55
2023/01/21 03:49:13;;;;;;;34.87;21.80;;;;;;;;;;5053732;28;20442;-55
2023/01/21 03:51:41;;;;;;;31.27;20.57;;;;;;;;;;5053753;28;20446;-55
2023/01/21 03:54:09;;;;;;;29.43;20.33;;;;;;;;;;5053593;28;20469;-56
2023/01/21 03:56:35;;;;;;;31.40;20.40;;;;;;;;;;5053647;28;20431;-56
2023/01/21 03:59:01;;;;;;;34.40;20.90;;;;;;;;;;5053438;28;21271;-56
2023/01/21 04:01:27;;;;;;;32.67;21.33;;;;;;;;;;5053576;28;20235;-56
2023/01/21 04:03:53;;;;;;;29.87;20.93;;;;;;;;;;5053579;28;20209;-56
2023/01/21 04:06:19;;;;;;;30.67;20.63;;;;;;;;;;5053308;28;20290;-56
2023/01/21 04:08:46;;;;;;;31.43;20.47;;;;;;;;;;5053498;28;20443;-57
2023/01/21 04:11:13;;;;;;;37.40;21.93;;;;;;;;;;5053428;28;20439;-56
2023/01/21 04:13:39;;;;;;;29.27;20.70;;;;;;;;;;5053276;28;20443;-55
2023/01/21 04:16:05;;;;;;;33.30;21.60;;;;;;;;;;5053079;28;20532;-56
2023/01/21 04:18:31;;;;;;;31.20;20.57;;;;;;;;;;5053095;28;20595;-56
2023/01/21 04:20:57;;;;;;;32.23;22.13;;;;;;;;;;5053131;28;20493;-56
2023/01/21 04:23:23;;;;;;;34.27;22.70;;;;;;;;;;5052085;28;20216;-56
2023/01/21 04:25:50;;;;;;;34.37;22.07;;;;;;;;;;5052953;28;20999;-56
2023/01/21 04:28:17;;;;;;;31.33;20.83;;;;;;;;;;5052908;28;20259;-56
2023/01/21 04:30:43;;;;;;;29.87;20.03;;;;;;;;;;5052899;28;20435;-59
2023/01/21 04:33:09;;;;;;;32.07;21.63;;;;;;;;;;5052949;28;20784;-55
2023/01/21 04:35:35;;;;;;;29.93;21.97;;;;;;;;;;5052801;28;20497;-56
2023/01/21 04:38:01;;;;;;;31.07;20.70;;;;;;;;;;5052837;28;20197;-56
2023/01/21 04:40:27;;;;;;;31.07;20.40;;;;;;;;;;5052629;28;20450;-56
2023/01/21 04:42:53;;;;;;;34.87;22.90;;;;;;;;;;5052858;28;20239;-56
2023/01/21 04:45:21;;;;;;;34.37;23.57;;;;;;;;;;5052651;28;20286;-56
2023/01/21 04:47:46;;;;;;;32.47;21.97;;;;;;;;;;5052688;28;20204;-56
2023/01/21 04:50:13;;;;;;;33.73;22.53;;;;;;;;;;5052482;28;20438;-56
2023/01/21 04:52:39;;;;;;;34.10;22.77;;;;;;;;;;5052672;28;20615;-56
2023/01/21 04:55:06;;;;;;;33.07;20.93;;;;;;;;;;5052556;28;20431;-56
2023/01/21 04:57:32;;;;;;;34.07;23.17;;;;;;;;;;5052211;28;20457;-55
2023/01/21 04:59:58;;;;;;;31.63;21.57;;;;;;;;;;5052259;28;20442;-56
2023/01/21 05:02:25;;;;;;;33.57;22.53;;;;;;;;;;5052218;28;20204;-56
2023/01/21 05:04:51;;;;;;;35.10;22.93;;;;;;;;;;5052399;28;20204;-56
2023/01/21 05:07:17;;;;;;;35.57;23.70;;;;;;;;;;5051960;28;20532;-56
2023/01/21 05:09:43;;;;;;;34.03;23.23;;;;;;;;;;5052252;28;20192;-56
2023/01/21 05:12:09;;;;;;;34.60;22.90;;;;;;;;;;5051983;28;20286;-56
2023/01/21 05:14:35;;;;;;;32.00;21.67;;;;;;;;;;5051838;28;20199;-55
2023/01/21 05:17:01;;;;;;;34.50;23.00;;;;;;;;;;5052014;28;20267;-55
2023/01/21 05:19:28;;;;;;;33.13;23.10;;;;;;;;;;5051866;28;21028;-55
2023/01/21 05:21:54;;;;;;;35.50;22.93;;;;;;;;;;5052116;28;20208;-56
2023/01/21 05:24:20;;;;;;;34.87;23.93;;;;;;;;;;5051782;28;20794;-57
2023/01/21 05:26:48;;;;;;;33.27;22.37;;;;;;;;;;5051750;28;20289;-56
2023/01/21 05:29:15;;;;;;;33.97;22.27;;;;;;;;;;5051697;28;20193;-56
2023/01/21 05:31:42;;;;;;;34.97;22.33;;;;;;;;;;5051838;28;20979;-56
2023/01/21 05:34:08;;;;;;;31.80;21.87;;;;;;;;;;5051550;28;20553;-56
2023/01/21 05:36:35;;;;;;;31.70;21.47;;;;;;;;;;5051665;28;20455;-56
2023/01/21 05:39:01;;;;;;;38.47;22.73;;;;;;;;;;5051713;28;20442;-56
2023/01/21 05:41:27;;;;;;;33.43;22.73;;;;;;;;;;5051569;28;20522;-56
2023/01/21 05:43:53;;;;;;;33.70;22.30;;;;;;;;;;5051599;28;20442;-56
2023/01/21 05:46:19;;;;;;;34.17;23.03;;;;;;;;;;5051416;28;20536;-56
2023/01/21 05:48:45;;;;;;;32.07;21.43;;;;;;;;;;5051583;28;20632;-56
2023/01/21 05:51:11;;;;;;;31.83;22.30;;;;;;;;;;5051438;28;20205;-57
2023/01/21 05:53:38;;;;;;;31.10;20.47;;;;;;;;;;5051402;28;20200;-56
2023/01/21 05:56:05;;;;;;;32.33;20.53;;;;;;;;;;5051500;28;20250;-56
2023/01/21 05:58:31;;;;;;;28.53;19.77;;;;;;;;;;5051065;28;20939;-56
2023/01/21 06:00:57;;;;;;;30.87;21.30;;;;;;;;;;5051481;28;20482;-56
2023/01/21 06:03:24;;;;;;;31.20;22.17;;;;;;;;;;5051422;28;20434;-56
2023/01/21 06:05:50;;;;;;;31.77;21.67;;;;;;;;;;5051238;28;20556;-57
2023/01/21 06:08:16;;;;;;;29.93;21.10;;;;;;;;;;5051283;28;20441;-57
2023/01/21 06:10:44;;;;;;;33.00;22.40;;;;;;;;;;5051445;28;20443;-56
2023/01/21 06:13:11;;;;;;;35.57;23.00;;;;;;;;;;5051344;28;20449;-56
2023/01/21 06:15:37;;;;;;;31.30;21.77;;;;;;;;;;5050973;28;20969;-56
2023/01/21 06:18:03;;;;;;;34.93;22.27;;;;;;;;;;5051399;28;20439;-59
2023/01/21 06:20:30;;;;;;;31.13;21.17;;;;;;;;;;5051268;28;20204;-58
2023/01/21 06:22:56;;;;;;;29.13;21.10;;;;;;;;;;5050579;28;20928;-56
2023/01/21 06:25:22;;;;;;;31.60;22.80;;;;;;;;;;5051179;28;20524;-56
2023/01/21 06:27:49;;;;;;;37.40;22.53;;;;;;;;;;5051210;28;20532;-56
2023/01/21 06:30:15;;;;;;;36.37;23.40;;;;;;;;;;5051039;28;20447;-56
2023/01/21 06:32:41;;;;;;;32.90;23.10;;;;;;;;;;5051034;28;20938;-56
2023/01/21 06:35:08;;;;;;;32.80;22.57;;;;;;;;;;5051182;28;20536;-56
2023/01/21 06:37:34;;;;;;;33.57;22.57;;;;;;;;;;5050851;28;20200;-56
2023/01/21 06:40:00;;;;;;;34.47;22.43;;;;;;;;;;5050944;28;20434;-56
2023/01/21 06:42:26;;;;;;;34.03;22.53;;;;;;;;;;5050941;28;20644;-56
2023/01/21 06:44:53;;;;;;;35.00;24.00;;;;;;;;;;5051003;28;20921;-56
2023/01/21 06:47:19;;;;;;;31.53;22.53;;;;;;;;;;5053518;28;20565;-56
2023/01/21 06:49:45;;;;;;;35.30;23.03;;;;;;;;;;5054499;28;20890;-55
2023/01/21 06:52:11;;;;;;;32.00;21.30;;;;;;;;;;5054832;28;20231;-55
2023/01/21 06:54:37;;;;;;;56.63;36.70;;;;;;;;;;5054623;28;20197;-55
2023/01/21 06:57:03;;;;;;;37.37;25.27;;;;;;;;;;5054576;28;20717;-55
2023/01/21 06:59:29;;;;;;;32.43;22.27;;;;;;;;;;5054529;28;20291;-55
2023/01/21 07:01:57;;;;;;;29.77;22.07;;;;;;;;;;5054733;28;20207;-54
2023/01/21 07:04:24;;;;;;;32.37;21.87;;;;;;;;;;5054499;28;20945;-55
2023/01/21 07:06:50;;;;;;;35.00;22.43;;;;;;;;;;5054503;28;20470;-55
2023/01/21 07:09:16;;;;;;;30.80;21.83;;;;;;;;;;5054443;28;20512;-55
2023/01/21 07:11:42;;;;;;;33.87;22.67;;;;;;;;;;5054188;28;20843;-55
2023/01/21 07:14:08;;;;;;;31.50;22.33;;;;;;;;;;5054397;28;20521;-55
2023/01/21 07:16:34;;;;;;;40.20;27.23;;;;;;;;;;5054135;28;20228;-55
2023/01/21 07:19:02;;;;;;;51.40;36.90;;;;;;;;;;5054391;28;20510;-55
2023/01/21 07:21:28;;;;;;;35.90;25.47;;;;;;;;;;5054289;28;20455;-55
2023/01/21 07:23:54;;;;;;;32.33;20.27;;;;;;;;;;5054286;28;20437;-55
2023/01/21 07:26:20;;;;;;;32.13;21.60;;;;;;;;;;5054027;28;20239;-55
2023/01/21 07:28:46;;;;;;;31.13;21.87;;;;;;;;;;5054288;28;20442;-55
2023/01/21 07:31:12;;;;;;;34.33;21.53;;;;;;;;;;5053980;28;20513;-55
2023/01/21 07:33:38;;;;;;;30.73;21.53;;;;;;;;;;5053986;28;20763;-56
2023/01/21 07:36:06;;;;;;;32.87;22.30;;;;;;;;;;5053943;28;20435;-55
2023/01/21 07:44:25;;;;;;;33.77;22.33;;;;;;;;;;5010995;28;20475;-54
2023/01/21 07:46:51;;;;;;;30.57;20.90;;;;;;;;;;5013902;28;21001;-55
2023/01/21 07:49:17;;;;;;;30.40;20.63;;;;;;;;;;5013939;28;20336;-55
2023/01/21 07:51:45;;;;;;;31.77;22.00;;;;;;;;;;5013940;28;20929;-55
2023/01/21 07:54:11;;;;;;;34.63;22.50;;;;;;;;;;5014002;28;20220;-55
2023/01/21 07:56:37;;;;;;;31.63;21.30;;;;;;;;;;5012028;28;20436;-55
2023/01/21 07:59:03;;;;;;;30.50;20.87;;;;;;;;;;5013326;28;20491;-55
2023/01/21 08:01:30;;;;;;;33.27;20.87;;;;;;;;;;5013644;28;20679;-55
2023/01/21 08:03:56;;;;;;;32.27;21.63;;;;;;;;;;5013246;28;20221;-55
2023/01/21 08:06:22;;;;;;;33.17;21.67;;;;;;;;;;5013469;28;20487;-55
2023/01/21 08:08:49;;;;;;;31.17;20.83;;;;;;;;;;5013376;28;20567;-54
2023/01/21 08:11:15;;;;;;;31.13;21.43;;;;;;;;;;5013522;28;20444;-55
2023/01/21 08:13:41;;;;;;;31.93;21.27;;;;;;;;;;5012949;28;20444;-55
2023/01/21 08:16:10;;;;;;;37.47;27.83;;;;;;;;;;5013030;28;20437;-55
2023/01/21 08:18:36;;;;;;;30.73;21.20;;;;;;;;;;5012863;28;20436;-55
2023/01/21 08:21:02;;;;;;;30.10;20.50;;;;;;;;;;5012926;28;20499;-54
2023/01/21 08:23:29;;;;;;;31.63;21.53;;;;;;;;;;5012945;28;20433;-55
2023/01/21 08:25:56;;;;;;;32.67;22.00;;;;;;;;;;5012732;28;20546;-55
2023/01/21 08:28:22;;;;;;;34.57;21.57;;;;;;;;;;5012893;28;20444;-55
2023/01/21 08:30:48;;;;;;;29.60;19.50;;;;;;;;;;5012832;28;20527;-55
2023/01/21 08:33:14;;;;;;;30.07;20.23;;;;;;;;;;5013026;28;20980;-54
2023/01/21 08:35:40;;;;;;;30.87;21.27;;;;;;;;;;5012591;28;20441;-55
2023/01/21 08:38:06;;;;;;;28.63;19.87;;;;;;;;;;5012657;28;20490;-55
2023/01/21 08:40:32;;;;;;;33.37;22.17;;;;;;;;;;5012551;28;20222;-55
2023/01/21 08:43:00;;;;;;;51.93;34.50;;;;;;;;;;5012237;28;20659;-55
2023/01/21 08:45:27;;;;;;;34.10;22.37;;;;;;;;;;5012508;28;20196;-56
2023/01/21 08:47:53;;;;;;;31.33;20.80;;;;;;;;;;5012188;28;20488;-54
2023/01/21 08:50:19;;;;;;;27.87;19.10;;;;;;;;;;5012397;28;20433;-55
2023/01/21 08:52:49;;;;;;;30.33;20.17;;;;;;;;;;5012142;28;20471;-55
2023/01/21 08:55:15;;;;;;;28.07;19.43;;;;;;;;;;5012595;28;20198;-55
2023/01/21 08:57:41;;;;;;;30.13;19.47;;;;;;;;;;5012071;28;20472;-55
2023/01/21 09:00:10;;;;;;;28.57;19.00;;;;;;;;;;5012413;28;20467;-55
2023/01/21 09:02:36;;;;;;;29.43;19.63;;;;;;;;;;5012026;28;20215;-55
2023/01/21 09:05:02;;;;;;;29.03;19.33;;;;;;;;;;5012152;28;20914;-55
2023/01/21 09:07:28;;;;;;;26.83;19.40;;;;;;;;;;5012048;28;20476;-55
2023/01/21 09:09:54;;;;;;;28.07;20.07;;;;;;;;;;5011288;28;20559;-55
2023/01/21 09:12:20;;;;;;;28.03;18.70;;;;;;;;;;5011940;28;20337;-55
2023/01/21 09:14:46;;;;;;;26.77;18.73;;;;;;;;;;5011812;28;20564;-54
2023/01/21 09:17:13;;;;;;;28.50;19.07;;;;;;;;;;5011945;28;20208;-54
2023/01/21 09:19:39;;;;;;;26.13;18.97;;;;;;;;;;5011896;28;20201;-54
2023/01/21 09:22:06;;;;;;;25.83;18.67;;;;;;;;;;5012070;28;20494;-55
2023/01/21 09:24:32;;;;;;;27.83;19.30;;;;;;;;;;5012180;28;20204;-55
2023/01/21 09:26:58;;;;;;;25.33;18.00;;;;;;;;;;5011887;28;20487;-55
2023/01/21 09:29:24;;;;;;;28.57;19.37;;;;;;;;;;5011560;28;20437;-55
2023/01/21 09:31:50;;;;;;;31.57;22.27;;;;;;;;;;5011051;28;20852;-54
2023/01/21 09:34:18;;;;;;;27.53;20.27;;;;;;;;;;5012124;28;20425;-55
2023/01/21 09:36:43;;;;;;;51.73;37.50;;;;;;;;;;5012069;28;20218;-55
2023/01/21 09:39:09;;;;;;;29.60;20.73;;;;;;;;;;5011839;28;20941;-55
2023/01/21 09:41:37;;;;;;;29.77;20.03;;;;;;;;;;5011836;28;20213;-55
2023/01/21 09:44:06;;;;;;;31.20;19.47;;;;;;;;;;5011567;28;20246;-54
2023/01/21 09:46:38;;;;;;;26.23;18.60;;;;;;;;;;5011673;28;20531;-55
2023/01/21 09:49:06;;;;;;;26.63;18.97;;;;;;;;;;5011651;28;20882;-54
2023/01/21 09:51:42;;;;;;;24.83;17.73;;;;;;;;;;5011684;28;20498;-54
2023/01/21 09:54:11;;;;;;;24.00;17.67;;;;;;;;;;5011767;28;20452;-54
2023/01/21 09:56:42;;;;;;;26.63;18.60;;;;;;;;;;5011629;28;20474;-54
2023/01/21 09:59:14;;;;;;;24.90;17.03;;;;;;;;;;5011593;28;20449;-55
2023/01/21 10:01:40;;;;;;;26.00;18.07;;;;;;;;;;5011503;28;20441;-54
2023/01/21 10:04:21;;;;;;;27.33;18.33;;;;;;;;;;5011334;28;20472;-54
2023/01/21 10:06:51;;;;;;;26.67;19.10;;;;;;;;;;5011239;28;20484;-56
2023/01/21 10:09:31;;;;;;;28.37;20.27;;;;;;;;;;5011497;28;20433;-55
2023/01/21 10:12:07;;;;;;;24.87;17.97;;;;;;;;;;5007802;28;20498;-55
2023/01/21 10:14:51;;;;;;;27.60;18.97;;;;;;;;;;5011374;28;20956;-55
2023/01/21 10:17:21;;;;;;;25.47;18.40;;;;;;;;;;4972086;28;20447;-56
2023/01/21 10:19:50;;;;;;;25.53;18.70;;;;;;;;;;5011545;28;20441;-55
2023/01/21 10:22:19;;;;;;;24.17;17.47;;;;;;;;;;5014562;28;20441;-55
2023/01/21 10:24:47;;;;;;;25.00;18.53;;;;;;;;;;5015487;28;20432;-54
2023/01/21 10:27:15;;;;;;;24.40;18.90;;;;;;;;;;5015538;28;20484;-55
2023/01/21 10:29:41;;;;;;;25.43;18.23;;;;;;;;;;5015651;28;20454;-55
2023/01/21 10:32:12;;;;;;;26.23;18.10;;;;;;;;;;5015297;28;20518;-55
2023/01/21 10:34:42;;;;;;;25.73;18.57;;;;;;;;;;5015255;28;20443;-55
2023/01/21 10:37:14;;;;;;;25.83;18.20;;;;;;;;;;5015437;28;20448;-55
2023/01/21 10:39:46;;;;;;;25.97;18.50;;;;;;;;;;5015112;28;20440;-55
2023/01/21 10:42:20;;;;;;;23.20;18.37;;;;;;;;;;5015421;28;20459;-55
2023/01/21 10:44:50;;;;;;;26.07;18.37;;;;;;;;;;5014900;28;20474;-55
2023/01/21 10:47:21;;;;;;;29.67;19.07;;;;;;;;;;5015198;28;20482;-55
2023/01/21 10:49:52;;;;;;;24.60;17.97;;;;;;;;;;5015021;28;20436;-55
2023/01/21 10:52:22;;;;;;;23.33;16.57;;;;;;;;;;5014903;28;20471;-55
2023/01/21 10:54:53;;;;;;;23.07;17.83;;;;;;;;;;5014684;28;20811;-55
2023/01/21 10:57:26;;;;;;;24.63;18.60;;;;;;;;;;5014757;28;20440;-55
2023/01/21 10:59:52;;;;;;;24.50;17.33;;;;;;;;;;5014704;28;20452;-54
2023/01/21 11:02:21;;;;;;;24.07;17.77;;;;;;;;;;5014742;28;21012;-55
2023/01/21 11:04:47;;;;;;;23.10;17.33;;;;;;;;;;5014625;28;20491;-55
2023/01/21 11:07:17;;;;;;;26.60;17.20;;;;;;;;;;5014668;28;20504;-55
2023/01/21 11:09:44;;;;;;;25.77;17.63;;;;;;;;;;5011680;28;20194;-54
2023/01/21 11:12:13;;;;;;;23.80;17.57;;;;;;;;;;5014426;28;20440;-55
2023/01/21 11:14:39;;;;;;;22.70;16.40;;;;;;;;;;5014555;28;20445;-55
2023/01/21 11:17:05;;;;;;;24.17;17.70;;;;;;;;;;5014224;28;20440;-54
2023/01/21 11:19:31;;;;;;;22.13;17.33;;;;;;;;;;5014315;28;20204;-57
2023/01/21 11:22:07;;;;;;;25.37;18.17;;;;;;;;;;5014499;28;20523;-54
2023/01/21 11:24:42;;;;;;;21.70;16.97;;;;;;;;;;5014428;28;20444;-55
2023/01/21 11:27:17;;;;;;;23.20;18.13;;;;;;;;;;5014304;28;20482;-55
2023/01/21 11:29:44;;;;;;;24.90;17.57;;;;;;;;;;5014304;28;20547;-55
2023/01/21 11:32:16;;;;;;;22.43;16.80;;;;;;;;;;5013663;28;20443;-55
2023/01/21 11:34:43;;;;;;;24.63;17.83;;;;;;;;;;5013064;28;20447;-55
2023/01/21 11:37:17;;;;;;;23.40;16.70;;;;;;;;;;5013788;28;20453;-55
2023/01/21 11:39:49;;;;;;;22.93;17.13;;;;;;;;;;5013885;28;20448;-55
2023/01/21 11:42:16;;;;;;;23.20;17.33;;;;;;;;;;5014061;28;20448;-55
2023/01/21 11:44:51;;;;;;;22.93;16.80;;;;;;;;;;5030103;28;20989;-55
2023/01/21 11:47:26;;;;;;;19.30;15.27;;;;;;;;;;5033577;28;20475;-55
2023/01/21 11:49:52;;;;;;;23.37;17.43;;;;;;;;;;5033425;28;20450;-55
2023/01/21 11:52:19;;;;;;;19.17;15.43;;;;;;;;;;5033356;28;20444;-55
2023/01/21 11:54:46;;;;;;;21.33;17.43;;;;;;;;;;5033390;28;20564;-55
2023/01/21 11:57:24;;;;;;;24.57;17.17;;;;;;;;;;5033340;28;20964;-55
2023/01/21 11:59:52;;;;;;;22.93;16.33;;;;;;;;;;5033181;28;20445;-55
2023/01/21 12:02:20;;;;;;;24.83;17.87;;;;;;;;;;5033559;28;20455;-55
2023/01/21 12:04:47;;;;;;;23.70;17.60;;;;;;;;;;5033170;28;20507;-55
2023/01/21 12:07:18;;;;;;;21.30;16.53;;;;;;;;;;5033297;28;20472;-55
2023/01/21 12:09:48;;;;;;;23.23;18.23;;;;;;;;;;5033352;28;20470;-55
2023/01/21 12:12:25;;;;;;;23.77;17.10;;;;;;;;;;5033112;28;20436;-55
2023/01/21 12:14:54;;;;;;;22.30;17.07;;;;;;;;;;5032959;28;20427;-55
2023/01/21 12:17:26;;;;;;;23.20;16.90;;;;;;;;;;5033261;28;20452;-55
2023/01/21 12:20:00;;;;;;;23.60;17.47;;;;;;;;;;5032960;28;20447;-55
2023/01/21 12:22:34;;;;;;;25.13;17.87;;;;;;;;;;5032829;28;20815;-55
2023/01/21 12:25:07;;;;;;;24.70;18.20;;;;;;;;;;5033014;28;20454;-55
2023/01/21 12:27:42;;;;;;;24.03;17.80;;;;;;;;;;5032773;28;20479;-54
2023/01/21 12:30:14;;;;;;;24.53;18.43;;;;;;;;;;5032524;28;21005;-55
2023/01/21 12:32:42;;;;;;;29.73;18.60;;;;;;;;;;5032588;28;20456;-55
2023/01/21 12:35:10;;;;;;;26.67;18.73;;;;;;;;;;5032785;28;20428;-55
2023/01/21 12:37:40;;;;;;;25.53;18.47;;;;;;;;;;5032366;28;20444;-55
2023/01/21 12:40:13;;;;;;;28.40;19.00;;;;;;;;;;5031925;28;20462;-54
2023/01/21 12:42:42;;;;;;;23.60;17.47;;;;;;;;;;5032503;28;20482;-55
2023/01/21 12:45:12;;;;;;;27.27;18.97;;;;;;;;;;5031553;28;20631;-55
2023/01/21 12:47:41;;;;;;;25.80;18.90;;;;;;;;;;5032280;28;20481;-55
2023/01/21 12:50:14;;;;;;;23.00;18.20;;;;;;;;;;5032355;28;20436;-55
2023/01/21 12:52:43;;;;;;;26.13;20.07;;;;;;;;;;5032202;28;20447;-55
2023/01/21 12:55:14;;;;;;;26.23;18.60;;;;;;;;;;5032230;28;20977;-56
2023/01/21 12:57:41;;;;;;;26.33;19.63;;;;;;;;;;5032436;28;20483;-54
2023/01/21 13:00:16;;;;;;;27.80;18.30;;;;;;;;;;5032243;28;20949;-55
2023/01/21 13:02:48;;;;;;;26.57;18.87;;;;;;;;;;5032049;28;20850;-56
2023/01/21 13:05:17;;;;;;;23.03;17.27;;;;;;;;;;5032365;28;20450;-55
2023/01/21 13:07:45;;;;;;;24.40;17.53;;;;;;;;;;5031793;28;20533;-54
2023/01/21 13:10:14;;;;;;;28.03;20.07;;;;;;;;;;5032178;28;20470;-54
2023/01/21 13:12:41;;;;;;;26.63;18.80;;;;;;;;;;5031810;28;20440;-55
2023/01/21 13:15:13;;;;;;;25.83;18.80;;;;;;;;;;5031646;28;20431;-55
2023/01/21 13:17:42;;;;;;;24.87;17.80;;;;;;;;;;5032471;28;20535;-55
2023/01/21 13:20:13;;;;;;;25.97;18.43;;;;;;;;;;5031941;28;20980;-55
2023/01/21 13:22:41;;;;;;;27.70;18.37;;;;;;;;;;5031900;28;20440;-55
2023/01/21 13:25:15;;;;;;;24.70;17.87;;;;;;;;;;5031728;28;20439;-55
2023/01/21 13:27:45;;;;;;;25.20;17.83;;;;;;;;;;5031839;28;20480;-55
2023/01/21 13:30:16;;;;;;;20.73;16.53;;;;;;;;;;5031448;28;20505;-54
2023/01/21 13:32:46;;;;;;;24.33;17.00;;;;;;;;;;5031880;28;20937;-54
2023/01/21 13:35:18;;;;;;;20.80;15.20;;;;;;;;;;5031241;28;20795;-54
2023/01/21 13:37:46;;;;;;;22.67;16.87;;;;;;;;;;5031193;28;20427;-55
2023/01/21 13:40:24;;;;;;;21.50;16.10;;;;;;;;;;5031517;28;20464;-55
2023/01/21 13:42:54;;;;;;;23.40;17.17;;;;;;;;;;5031172;28;20535;-54
2023/01/21 13:45:25;;;;;;;22.03;16.90;;;;;;;;;;5031158;28;20983;-54
2023/01/21 13:48:00;;;;;;;23.10;16.03;;;;;;;;;;5031338;28;20475;-55
2023/01/21 13:50:31;;;;;;;22.43;15.47;;;;;;;;;;5031493;28;20439;-54
2023/01/21 13:53:12;;;;;;;20.83;15.23;;;;;;;;;;5031549;28;20937;-54
2023/01/21 13:55:44;;;;;;;22.53;16.07;;;;;;;;;;5027238;28;20817;-55
2023/01/21 13:58:12;;;;;;;18.73;13.77;;;;;;;;;;5031374;28;20539;-54
2023/01/21 14:00:41;;;;;;;20.37;15.10;;;;;;;;;;5031329;28;20435;-54
2023/01/21 14:03:13;;;;;;;19.17;14.63;;;;;;;;;;5031170;28;20436;-54
2023/01/21 14:05:43;;;;;;;20.00;13.93;;;;;;;;;;5031173;28;20888;-55
2023/01/21 14:08:12;;;;;;;20.43;14.77;;;;;;;;;;5031031;28;20521;-54
2023/01/21 14:10:40;;;;;;;17.47;13.73;;;;;;;;;;5031374;28;20436;-56
2023/01/21 14:13:17;;;;;;;18.57;13.07;;;;;;;;;;5030790;28;20440;-56
2023/01/21 14:15:50;;;;;;;18.83;13.30;;;;;;;;;;5031385;28;20444;-54
2023/01/21 14:18:27;;;;;;;20.13;14.40;;;;;;;;;;5031268;28;20988;-55
2023/01/21 14:21:04;;;;;;;21.20;14.93;;;;;;;;;;5031062;28;20454;-55
2023/01/21 14:23:37;;;;;;;26.37;18.10;;;;;;;;;;5031471;28;21076;-54
2023/01/21 14:26:08;;;;;;;22.67;16.50;;;;;;;;;;5031135;28;20448;-54
2023/01/21 14:28:38;;;;;;;20.93;17.03;;;;;;;;;;5031289;28;20439;-55
2023/01/21 14:31:06;;;;;;;23.73;18.27;;;;;;;;;;5030818;28;20847;-55
2023/01/21 14:33:37;;;;;;;23.03;17.17;;;;;;;;;;5030201;28;20443;-56